sensor_id;sensor_type;location;lat;lon;timestamp;temperature;humidity
6270;DHT22;3168;51.684;6.954;2023-11-25T00:02:02;2.30;1.00
6270;DHT22;3168;51.684;6.954;2023-11-25T00:04:28;2.30;1.00
6270;DHT22;3168;51.684;6.954;2023-11-25T00:06:54;2.30;1.00
6270;DHT22;3168;51.684;6.954;2023-11-25T00:09:20;2.30;1.00
6270;DHT22;3168;51.684;6.954;2023-11-25T00:11:46;2.30;1.00
6270;DHT22;3168;51.684;6.954;2023-11-25T00:14:12;2.40;1.00
6270;DHT22;3168;51.684;6.954;2023-11-25T00:16:37;2.40;1.00
6270;DHT22;3168;51.684;6.954;2023-11-25T00:19:03;2.30;1.00
6270;DHT22;3168;51.684;6.954;2023-11-25T00:21:29;2.30;1.00
6270;DHT22;3168;51.684;6.954;2023-11-25T00:23:55;2.30;1.00
6270;DHT22;3168;51.684;6.954;2023-11-25T00:26:21;2.30;1.00
6270;DHT22;3168;51.684;6.954;2023-11-25T00:28:46;2.30;1.00
6270;DHT22;3168;51.684;6.954;2023-11-25T00:31:12;2.20;1.00
6270;DHT22;3168;51.684;6.954;2023-11-25T00:33:38;2.20;1.00
6270;DHT22;3168;51.684;6.954;2023-11-25T00:36:05;2.20;1.00
6270;DHT22;3168;51.684;6.954;2023-11-25T00:38:31;2.10;1.00
6270;DHT22;3168;51.684;6.954;2023-11-25T00:40:56;2.10;1.00
6270;DHT22;3168;51.684;6.954;2023-11-25T00:43:24;2.10;1.00
6270;DHT22;3168;51.684;6.954;2023-11-25T00:45:50;2.00;1.00
6270;DHT22;3168;51.684;6.954;2023-11-25T00:48:16;2.10;1.00
6270;DHT22;3168;51.684;6.954;2023-11-25T00:50:42;2.00;1.00
6270;DHT22;3168;51.684;6.954;2023-11-25T00:53:07;2.00;1.00
6270;DHT22;3168;51.684;6.954;2023-11-25T00:55:33;2.00;1.00
6270;DHT22;3168;51.684;6.954;2023-11-25T00:57:59;1.90;1.00
6270;DHT22;3168;51.684;6.954;2023-11-25T01:00:25;1.90;1.00
6270;DHT22;3168;51.684;6.954;2023-11-25T01:02:51;1.90;1.00
6270;DHT22;3168;51.684;6.954;2023-11-25T01:05:17;1.90;1.00
6270;DHT22;3168;51.684;6.954;2023-11-25T01:07:43;2.00;1.00
6270;DHT22;3168;51.684;6.954;2023-11-25T01:10:08;2.00;1.00
6270;DHT22;3168;51.684;6.954;2023-11-25T01:12:34;1.90;1.00
6270;DHT22;3168;51.684;6.954;2023-11-25T01:15:01;1.80;1.00
6270;DHT22;3168;51.684;6.954;2023-11-25T01:17:27;1.70;1.00
6270;DHT22;3168;51.684;6.954;2023-11-25T01:19:53;1.70;1.00
6270;DHT22;3168;51.684;6.954;2023-11-25T01:22:19;1.70;1.00
6270;DHT22;3168;51.684;6.954;2023-11-25T01:24:44;1.70;1.00
6270;DHT22;3168;51.684;6.954;2023-11-25T01:27:10;1.60;1.00
6270;DHT22;3168;51.684;6.954;2023-11-25T01:29:36;1.60;1.00
6270;DHT22;3168;51.684;6.954;2023-11-25T01:32:02;1.60;1.00
6270;DHT22;3168;51.684;6.954;2023-11-25T01:34:28;1.60;1.00
6270;DHT22;3168;51.684;6.954;2023-11-25T01:36:54;1.70;1.00
6270;DHT22;3168;51.684;6.954;2023-11-25T01:39:20;1.70;1.00
6270;DHT22;3168;51.684;6.954;2023-11-25T01:41:46;1.80;1.00
6270;DHT22;3168;51.684;6.954;2023-11-25T01:44:11;1.80;1.00
6270;DHT22;3168;51.684;6.954;2023-11-25T01:46:38;1.80;1.00
6270;DHT22;3168;51.684;6.954;2023-11-25T01:49:05;1.70;1.00
6270;DHT22;3168;51.684;6.954;2023-11-25T01:51:31;1.70;1.00
6270;DHT22;3168;51.684;6.954;2023-11-25T01:53:56;1.70;1.00
6270;DHT22;3168;51.684;6.954;2023-11-25T01:56:23;1.70;1.00
6270;DHT22;3168;51.684;6.954;2023-11-25T01:58:49;1.70;1.00
6270;DHT22;3168;51.684;6.954;2023-11-25T02:01:15;1.70;1.00
6270;DHT22;3168;51.684;6.954;2023-11-25T02:03:41;1.70;1.00
6270;DHT22;3168;51.684;6.954;2023-11-25T02:06:06;1.70;1.00
6270;DHT22;3168;51.684;6.954;2023-11-25T02:08:32;1.70;1.00
6270;DHT22;3168;51.684;6.954;2023-11-25T02:10:58;1.70;1.00
6270;DHT22;3168;51.684;6.954;2023-11-25T02:13:25;1.60;1.00
6270;DHT22;3168;51.684;6.954;2023-11-25T02:15:50;1.60;1.00
6270;DHT22;3168;51.684;6.954;2023-11-25T02:18:17;1.60;1.00
6270;DHT22;3168;51.684;6.954;2023-11-25T02:20:43;1.60;1.00
6270;DHT22;3168;51.684;6.954;2023-11-25T02:23:15;1.70;1.00
6270;DHT22;3168;51.684;6.954;2023-11-25T02:25:43;1.60;1.00
6270;DHT22;3168;51.684;6.954;2023-11-25T02:28:07;1.60;1.00
6270;DHT22;3168;51.684;6.954;2023-11-25T02:30:33;1.60;1.00
6270;DHT22;3168;51.684;6.954;2023-11-25T02:32:59;1.50;1.00
6270;DHT22;3168;51.684;6.954;2023-11-25T02:35:25;1.60;1.00
6270;DHT22;3168;51.684;6.954;2023-11-25T02:37:50;1.60;1.00
6270;DHT22;3168;51.684;6.954;2023-11-25T02:40:16;1.60;1.00
6270;DHT22;3168;51.684;6.954;2023-11-25T02:42:43;1.70;1.00
6270;DHT22;3168;51.684;6.954;2023-11-25T02:45:09;1.70;1.00
6270;DHT22;3168;51.684;6.954;2023-11-25T02:47:35;1.80;1.00
6270;DHT22;3168;51.684;6.954;2023-11-25T02:50:01;1.80;1.00
6270;DHT22;3168;51.684;6.954;2023-11-25T02:52:27;1.80;1.00
6270;DHT22;3168;51.684;6.954;2023-11-25T02:54:52;1.80;1.00
6270;DHT22;3168;51.684;6.954;2023-11-25T02:57:18;1.90;1.00
6270;DHT22;3168;51.684;6.954;2023-11-25T02:59:44;1.90;1.00
6270;DHT22;3168;51.684;6.954;2023-11-25T03:02:10;1.90;1.00
6270;DHT22;3168;51.684;6.954;2023-11-25T03:04:37;1.90;1.00
6270;DHT22;3168;51.684;6.954;2023-11-25T03:07:03;1.90;1.00
6270;DHT22;3168;51.684;6.954;2023-11-25T03:09:28;2.00;1.00
6270;DHT22;3168;51.684;6.954;2023-11-25T03:11:54;2.10;1.00
6270;DHT22;3168;51.684;6.954;2023-11-25T03:14:20;2.10;1.00
6270;DHT22;3168;51.684;6.954;2023-11-25T03:16:46;2.20;1.00
6270;DHT22;3168;51.684;6.954;2023-11-25T03:19:12;2.20;1.00
6270;DHT22;3168;51.684;6.954;2023-11-25T03:21:37;2.20;1.00
6270;DHT22;3168;51.684;6.954;2023-11-25T03:24:04;2.20;1.00
6270;DHT22;3168;51.684;6.954;2023-11-25T03:26:30;2.40;1.00
6270;DHT22;3168;51.684;6.954;2023-11-25T03:28:56;2.40;1.00
6270;DHT22;3168;51.684;6.954;2023-11-25T03:31:22;2.40;1.00
6270;DHT22;3168;51.684;6.954;2023-11-25T03:33:48;2.40;1.00
6270;DHT22;3168;51.684;6.954;2023-11-25T03:36:14;2.40;1.00
6270;DHT22;3168;51.684;6.954;2023-11-25T03:38:40;2.40;1.00
6270;DHT22;3168;51.684;6.954;2023-11-25T03:41:06;2.40;1.00
6270;DHT22;3168;51.684;6.954;2023-11-25T03:43:32;2.30;1.00
6270;DHT22;3168;51.684;6.954;2023-11-25T03:45:58;2.30;1.00
6270;DHT22;3168;51.684;6.954;2023-11-25T03:48:24;2.30;1.00
6270;DHT22;3168;51.684;6.954;2023-11-25T03:50:50;2.30;1.00
6270;DHT22;3168;51.684;6.954;2023-11-25T03:53:16;2.30;1.00
6270;DHT22;3168;51.684;6.954;2023-11-25T03:55:42;2.20;1.00
6270;DHT22;3168;51.684;6.954;2023-11-25T03:58:08;2.30;1.00
6270;DHT22;3168;51.684;6.954;2023-11-25T04:00:34;2.30;1.00
6270;DHT22;3168;51.684;6.954;2023-11-25T04:03:00;2.30;1.00
6270;DHT22;3168;51.684;6.954;2023-11-25T04:05:26;2.20;1.00
6270;DHT22;3168;51.684;6.954;2023-11-25T04:07:51;2.20;1.00
6270;DHT22;3168;51.684;6.954;2023-11-25T04:10:17;2.20;1.00
6270;DHT22;3168;51.684;6.954;2023-11-25T04:12:44;2.10;1.00
6270;DHT22;3168;51.684;6.954;2023-11-25T04:15:10;2.10;1.00
6270;DHT22;3168;51.684;6.954;2023-11-25T04:17:35;2.00;1.00
6270;DHT22;3168;51.684;6.954;2023-11-25T04:20:01;1.90;1.00
6270;DHT22;3168;51.684;6.954;2023-11-25T04:22:27;1.90;1.00
6270;DHT22;3168;51.684;6.954;2023-11-25T04:24:53;1.90;1.00
6270;DHT22;3168;51.684;6.954;2023-11-25T04:27:19;1.90;1.00
6270;DHT22;3168;51.684;6.954;2023-11-25T04:29:45;1.90;1.00
6270;DHT22;3168;51.684;6.954;2023-11-25T04:32:11;1.90;1.00
6270;DHT22;3168;51.684;6.954;2023-11-25T04:34:36;1.90;1.00
6270;DHT22;3168;51.684;6.954;2023-11-25T04:37:02;1.90;1.00
6270;DHT22;3168;51.684;6.954;2023-11-25T04:39:28;1.90;1.00
6270;DHT22;3168;51.684;6.954;2023-11-25T04:41:54;1.90;1.00
6270;DHT22;3168;51.684;6.954;2023-11-25T04:44:19;2.00;1.00
6270;DHT22;3168;51.684;6.954;2023-11-25T04:46:46;2.10;1.00
6270;DHT22;3168;51.684;6.954;2023-11-25T04:49:12;2.10;1.00
6270;DHT22;3168;51.684;6.954;2023-11-25T04:51:37;2.20;1.00
6270;DHT22;3168;51.684;6.954;2023-11-25T04:54:04;2.20;1.00
6270;DHT22;3168;51.684;6.954;2023-11-25T04:56:29;2.20;1.00
6270;DHT22;3168;51.684;6.954;2023-11-25T04:58:55;2.30;1.00
6270;DHT22;3168;51.684;6.954;2023-11-25T05:01:21;2.30;1.00
6270;DHT22;3168;51.684;6.954;2023-11-25T05:03:47;2.30;1.00
6270;DHT22;3168;51.684;6.954;2023-11-25T05:06:13;2.30;1.00
6270;DHT22;3168;51.684;6.954;2023-11-25T05:08:39;2.30;1.00
6270;DHT22;3168;51.684;6.954;2023-11-25T05:11:04;2.40;1.00
6270;DHT22;3168;51.684;6.954;2023-11-25T05:13:30;2.40;1.00
6270;DHT22;3168;51.684;6.954;2023-11-25T05:15:56;2.40;1.00
6270;DHT22;3168;51.684;6.954;2023-11-25T05:18:22;2.50;1.00
6270;DHT22;3168;51.684;6.954;2023-11-25T05:20:48;2.50;1.00
6270;DHT22;3168;51.684;6.954;2023-11-25T05:23:14;2.60;1.00
6270;DHT22;3168;51.684;6.954;2023-11-25T05:25:39;2.60;1.00
6270;DHT22;3168;51.684;6.954;2023-11-25T05:28:05;2.60;1.00
6270;DHT22;3168;51.684;6.954;2023-11-25T05:30:32;2.60;1.00
6270;DHT22;3168;51.684;6.954;2023-11-25T05:32:58;2.60;1.00
6270;DHT22;3168;51.684;6.954;2023-11-25T05:35:24;2.60;1.00
6270;DHT22;3168;51.684;6.954;2023-11-25T05:37:49;2.70;1.00
6270;DHT22;3168;51.684;6.954;2023-11-25T05:40:15;2.70;1.00
6270;DHT22;3168;51.684;6.954;2023-11-25T05:42:41;2.80;1.00
6270;DHT22;3168;51.684;6.954;2023-11-25T05:45:09;2.80;1.00
6270;DHT22;3168;51.684;6.954;2023-11-25T05:47:35;2.90;1.00
6270;DHT22;3168;51.684;6.954;2023-11-25T05:50:00;3.00;1.00
6270;DHT22;3168;51.684;6.954;2023-11-25T05:52:26;3.20;1.00
6270;DHT22;3168;51.684;6.954;2023-11-25T05:54:52;3.30;1.00
6270;DHT22;3168;51.684;6.954;2023-11-25T05:57:18;3.30;1.00
6270;DHT22;3168;51.684;6.954;2023-11-25T05:59:44;3.50;1.00
6270;DHT22;3168;51.684;6.954;2023-11-25T06:02:10;3.60;1.00
6270;DHT22;3168;51.684;6.954;2023-11-25T06:04:36;3.60;1.00
6270;DHT22;3168;51.684;6.954;2023-11-25T06:07:02;3.60;1.00
6270;DHT22;3168;51.684;6.954;2023-11-25T06:09:28;3.60;1.00
6270;DHT22;3168;51.684;6.954;2023-11-25T06:11:54;3.70;1.00
6270;DHT22;3168;51.684;6.954;2023-11-25T06:14:19;3.80;1.00
6270;DHT22;3168;51.684;6.954;2023-11-25T06:16:45;3.80;1.00
6270;DHT22;3168;51.684;6.954;2023-11-25T06:19:11;3.90;1.00
6270;DHT22;3168;51.684;6.954;2023-11-25T06:21:37;3.80;1.00
6270;DHT22;3168;51.684;6.954;2023-11-25T06:24:03;3.80;1.00
6270;DHT22;3168;51.684;6.954;2023-11-25T06:26:29;3.80;1.00
6270;DHT22;3168;51.684;6.954;2023-11-25T06:28:55;3.80;1.00
6270;DHT22;3168;51.684;6.954;2023-11-25T06:31:21;3.80;1.00
6270;DHT22;3168;51.684;6.954;2023-11-25T06:33:47;3.70;1.00
6270;DHT22;3168;51.684;6.954;2023-11-25T06:36:12;3.70;1.00
6270;DHT22;3168;51.684;6.954;2023-11-25T06:38:38;3.70;1.00
6270;DHT22;3168;51.684;6.954;2023-11-25T06:41:04;3.70;1.00
6270;DHT22;3168;51.684;6.954;2023-11-25T06:43:30;3.70;1.00
6270;DHT22;3168;51.684;6.954;2023-11-25T06:45:56;3.70;1.00
6270;DHT22;3168;51.684;6.954;2023-11-25T06:48:22;3.70;1.00
6270;DHT22;3168;51.684;6.954;2023-11-25T06:50:49;3.50;1.00
6270;DHT22;3168;51.684;6.954;2023-11-25T06:53:15;3.50;1.00
6270;DHT22;3168;51.684;6.954;2023-11-25T06:55:41;3.40;1.00
6270;DHT22;3168;51.684;6.954;2023-11-25T06:58:08;3.30;1.00
6270;DHT22;3168;51.684;6.954;2023-11-25T07:00:34;3.30;1.00
6270;DHT22;3168;51.684;6.954;2023-11-25T07:02:59;3.30;1.00
6270;DHT22;3168;51.684;6.954;2023-11-25T07:05:25;3.20;1.00
6270;DHT22;3168;51.684;6.954;2023-11-25T07:07:51;3.20;1.00
6270;DHT22;3168;51.684;6.954;2023-11-25T07:10:18;3.30;1.00
6270;DHT22;3168;51.684;6.954;2023-11-25T07:12:44;3.30;1.00
6270;DHT22;3168;51.684;6.954;2023-11-25T07:15:09;3.40;1.00
6270;DHT22;3168;51.684;6.954;2023-11-25T07:17:35;3.40;1.00
6270;DHT22;3168;51.684;6.954;2023-11-25T07:20:01;3.30;1.00
6270;DHT22;3168;51.684;6.954;2023-11-25T07:22:27;3.30;1.00
6270;DHT22;3168;51.684;6.954;2023-11-25T07:24:54;3.20;1.00
6270;DHT22;3168;51.684;6.954;2023-11-25T07:27:20;3.20;1.00
6270;DHT22;3168;51.684;6.954;2023-11-25T07:29:45;3.30;1.00
6270;DHT22;3168;51.684;6.954;2023-11-25T07:32:11;3.30;1.00
6270;DHT22;3168;51.684;6.954;2023-11-25T07:34:38;3.40;1.00
6270;DHT22;3168;51.684;6.954;2023-11-25T07:37:05;3.40;1.00
6270;DHT22;3168;51.684;6.954;2023-11-25T07:39:31;3.50;1.00
6270;DHT22;3168;51.684;6.954;2023-11-25T07:41:56;3.50;1.00
6270;DHT22;3168;51.684;6.954;2023-11-25T07:44:23;3.60;1.00
6270;DHT22;3168;51.684;6.954;2023-11-25T07:46:49;3.50;1.00
6270;DHT22;3168;51.684;6.954;2023-11-25T07:49:16;3.60;1.00
6270;DHT22;3168;51.684;6.954;2023-11-25T07:51:42;3.60;1.00
6270;DHT22;3168;51.684;6.954;2023-11-25T07:54:08;3.60;1.00
6270;DHT22;3168;51.684;6.954;2023-11-25T07:56:34;3.60;1.00
6270;DHT22;3168;51.684;6.954;2023-11-25T07:59:00;3.60;1.00
6270;DHT22;3168;51.684;6.954;2023-11-25T08:01:26;3.70;1.00
6270;DHT22;3168;51.684;6.954;2023-11-25T08:03:52;3.70;1.00
6270;DHT22;3168;51.684;6.954;2023-11-25T08:06:18;3.60;1.00
6270;DHT22;3168;51.684;6.954;2023-11-25T08:08:43;3.70;1.00
6270;DHT22;3168;51.684;6.954;2023-11-25T08:11:09;3.70;1.00
6270;DHT22;3168;51.684;6.954;2023-11-25T08:13:35;3.70;1.00
6270;DHT22;3168;51.684;6.954;2023-11-25T08:16:01;3.70;1.00
6270;DHT22;3168;51.684;6.954;2023-11-25T08:18:27;3.70;1.00
6270;DHT22;3168;51.684;6.954;2023-11-25T08:20:53;3.70;1.00
6270;DHT22;3168;51.684;6.954;2023-11-25T08:23:19;3.80;1.00
6270;DHT22;3168;51.684;6.954;2023-11-25T08:25:45;3.80;1.00
6270;DHT22;3168;51.684;6.954;2023-11-25T08:28:11;3.80;1.00
6270;DHT22;3168;51.684;6.954;2023-11-25T08:30:36;3.90;1.00
6270;DHT22;3168;51.684;6.954;2023-11-25T08:33:02;3.90;1.00
6270;DHT22;3168;51.684;6.954;2023-11-25T08:35:28;3.90;1.00
6270;DHT22;3168;51.684;6.954;2023-11-25T08:37:54;4.00;1.00
6270;DHT22;3168;51.684;6.954;2023-11-25T08:40:20;4.00;1.00
6270;DHT22;3168;51.684;6.954;2023-11-25T08:42:46;4.10;1.00
6270;DHT22;3168;51.684;6.954;2023-11-25T08:45:12;4.20;1.00
6270;DHT22;3168;51.684;6.954;2023-11-25T08:47:38;4.30;1.00
6270;DHT22;3168;51.684;6.954;2023-11-25T08:50:04;4.40;1.00
6270;DHT22;3168;51.684;6.954;2023-11-25T08:52:30;4.50;1.00
6270;DHT22;3168;51.684;6.954;2023-11-25T08:54:56;4.50;1.00
6270;DHT22;3168;51.684;6.954;2023-11-25T08:57:22;4.50;1.00
6270;DHT22;3168;51.684;6.954;2023-11-25T08:59:48;4.60;1.00
6270;DHT22;3168;51.684;6.954;2023-11-25T09:02:13;4.60;1.00
6270;DHT22;3168;51.684;6.954;2023-11-25T09:04:39;4.60;1.00
6270;DHT22;3168;51.684;6.954;2023-11-25T09:07:05;4.60;1.00
6270;DHT22;3168;51.684;6.954;2023-11-25T09:09:31;4.60;1.00
6270;DHT22;3168;51.684;6.954;2023-11-25T09:11:58;4.50;1.00
6270;DHT22;3168;51.684;6.954;2023-11-25T09:14:24;4.50;1.00
6270;DHT22;3168;51.684;6.954;2023-11-25T09:16:50;4.60;1.00
6270;DHT22;3168;51.684;6.954;2023-11-25T09:19:17;4.60;1.00
6270;DHT22;3168;51.684;6.954;2023-11-25T09:21:43;4.60;1.00
6270;DHT22;3168;51.684;6.954;2023-11-25T09:24:09;4.70;1.00
6270;DHT22;3168;51.684;6.954;2023-11-25T09:26:35;4.80;1.00
6270;DHT22;3168;51.684;6.954;2023-11-25T09:29:03;4.90;1.00
6270;DHT22;3168;51.684;6.954;2023-11-25T09:31:29;5.00;1.00
6270;DHT22;3168;51.684;6.954;2023-11-25T09:33:55;4.90;1.00
6270;DHT22;3168;51.684;6.954;2023-11-25T09:36:21;5.10;1.00
6270;DHT22;3168;51.684;6.954;2023-11-25T09:38:47;5.30;1.00
6270;DHT22;3168;51.684;6.954;2023-11-25T09:41:13;5.40;1.00
6270;DHT22;3168;51.684;6.954;2023-11-25T09:43:39;5.60;1.00
6270;DHT22;3168;51.684;6.954;2023-11-25T09:46:05;5.60;1.00
6270;DHT22;3168;51.684;6.954;2023-11-25T09:48:31;5.60;1.00
6270;DHT22;3168;51.684;6.954;2023-11-25T09:50:58;5.60;1.00
6270;DHT22;3168;51.684;6.954;2023-11-25T09:53:28;5.50;1.00
6270;DHT22;3168;51.684;6.954;2023-11-25T09:55:59;5.50;1.00
6270;DHT22;3168;51.684;6.954;2023-11-25T09:58:24;5.40;1.00
6270;DHT22;3168;51.684;6.954;2023-11-25T10:00:51;5.40;1.00
6270;DHT22;3168;51.684;6.954;2023-11-25T10:03:16;5.40;1.00
6270;DHT22;3168;51.684;6.954;2023-11-25T10:05:42;5.40;1.00
6270;DHT22;3168;51.684;6.954;2023-11-25T10:08:08;5.30;1.00
6270;DHT22;3168;51.684;6.954;2023-11-25T10:10:34;5.40;1.00
6270;DHT22;3168;51.684;6.954;2023-11-25T10:13:01;5.40;1.00
6270;DHT22;3168;51.684;6.954;2023-11-25T10:15:27;5.50;1.00
6270;DHT22;3168;51.684;6.954;2023-11-25T10:17:53;5.60;1.00
6270;DHT22;3168;51.684;6.954;2023-11-25T10:20:20;5.70;1.00
6270;DHT22;3168;51.684;6.954;2023-11-25T10:22:47;5.70;1.00
6270;DHT22;3168;51.684;6.954;2023-11-25T10:25:12;5.70;1.00
6270;DHT22;3168;51.684;6.954;2023-11-25T10:27:38;5.60;1.00
6270;DHT22;3168;51.684;6.954;2023-11-25T10:30:06;5.60;1.00
6270;DHT22;3168;51.684;6.954;2023-11-25T10:32:33;5.60;1.00
6270;DHT22;3168;51.684;6.954;2023-11-25T10:34:59;5.60;1.00
6270;DHT22;3168;51.684;6.954;2023-11-25T10:37:26;5.90;1.00
6270;DHT22;3168;51.684;6.954;2023-11-25T10:39:52;5.80;1.00
6270;DHT22;3168;51.684;6.954;2023-11-25T10:42:18;5.90;1.00
6270;DHT22;3168;51.684;6.954;2023-11-25T10:44:44;6.00;1.00
6270;DHT22;3168;51.684;6.954;2023-11-25T10:47:30;6.00;1.00
6270;DHT22;3168;51.684;6.954;2023-11-25T10:49:56;6.30;1.00
6270;DHT22;3168;51.684;6.954;2023-11-25T10:52:22;6.30;1.00
6270;DHT22;3168;51.684;6.954;2023-11-25T10:54:48;6.50;1.00
6270;DHT22;3168;51.684;6.954;2023-11-25T10:57:14;6.50;99.90
6270;DHT22;3168;51.684;6.954;2023-11-25T10:59:40;6.50;99.90
6270;DHT22;3168;51.684;6.954;2023-11-25T11:02:09;6.40;99.90
6270;DHT22;3168;51.684;6.954;2023-11-25T11:04:33;6.30;99.90
6270;DHT22;3168;51.684;6.954;2023-11-25T11:06:58;6.30;99.90
6270;DHT22;3168;51.684;6.954;2023-11-25T11:09:24;6.30;99.90
6270;DHT22;3168;51.684;6.954;2023-11-25T11:11:51;6.40;99.90
6270;DHT22;3168;51.684;6.954;2023-11-25T11:14:16;6.30;99.90
6270;DHT22;3168;51.684;6.954;2023-11-25T11:16:48;6.40;99.90
6270;DHT22;3168;51.684;6.954;2023-11-25T11:19:09;6.30;99.90
6270;DHT22;3168;51.684;6.954;2023-11-25T11:21:37;6.40;99.90
6270;DHT22;3168;51.684;6.954;2023-11-25T11:24:03;6.30;99.90
6270;DHT22;3168;51.684;6.954;2023-11-25T11:26:50;6.40;99.90
6270;DHT22;3168;51.684;6.954;2023-11-25T11:29:18;6.40;99.90
6270;DHT22;3168;51.684;6.954;2023-11-25T11:34:28;6.50;99.90
6270;DHT22;3168;51.684;6.954;2023-11-25T11:36:54;6.60;99.90
6270;DHT22;3168;51.684;6.954;2023-11-25T11:42:33;6.80;99.90
6270;DHT22;3168;51.684;6.954;2023-11-25T11:44:53;6.80;99.90
6270;DHT22;3168;51.684;6.954;2023-11-25T11:47:08;6.80;99.90
6270;DHT22;3168;51.684;6.954;2023-11-25T11:49:34;6.60;99.90
6270;DHT22;3168;51.684;6.954;2023-11-25T11:52:01;6.70;99.90
6270;DHT22;3168;51.684;6.954;2023-11-25T11:54:26;6.60;99.90
6270;DHT22;3168;51.684;6.954;2023-11-25T11:57:00;6.50;99.90
6270;DHT22;3168;51.684;6.954;2023-11-25T12:00:04;6.30;1.00
6270;DHT22;3168;51.684;6.954;2023-11-25T12:02:13;6.20;1.00
6270;DHT22;3168;51.684;6.954;2023-11-25T12:04:39;6.10;1.00
6270;DHT22;3168;51.684;6.954;2023-11-25T12:07:05;6.10;1.00
6270;DHT22;3168;51.684;6.954;2023-11-25T12:09:31;6.00;1.00
6270;DHT22;3168;51.684;6.954;2023-11-25T12:11:57;6.00;1.00
6270;DHT22;3168;51.684;6.954;2023-11-25T12:14:23;5.90;1.00
6270;DHT22;3168;51.684;6.954;2023-11-25T12:16:49;5.90;1.00
6270;DHT22;3168;51.684;6.954;2023-11-25T12:19:15;5.80;1.00
6270;DHT22;3168;51.684;6.954;2023-11-25T12:21:41;5.80;1.00
6270;DHT22;3168;51.684;6.954;2023-11-25T12:24:11;5.70;1.00
6270;DHT22;3168;51.684;6.954;2023-11-25T12:26:34;5.90;1.00
6270;DHT22;3168;51.684;6.954;2023-11-25T12:29:00;5.80;1.00
6270;DHT22;3168;51.684;6.954;2023-11-25T12:31:27;5.80;1.00
6270;DHT22;3168;51.684;6.954;2023-11-25T12:33:52;5.80;1.00
6270;DHT22;3168;51.684;6.954;2023-11-25T12:36:19;5.90;1.00
6270;DHT22;3168;51.684;6.954;2023-11-25T12:38:45;5.90;1.00
6270;DHT22;3168;51.684;6.954;2023-11-25T12:41:12;5.90;1.00
6270;DHT22;3168;51.684;6.954;2023-11-25T12:44:01;5.90;1.00
6270;DHT22;3168;51.684;6.954;2023-11-25T12:46:10;5.90;1.00
6270;DHT22;3168;51.684;6.954;2023-11-25T12:48:36;5.90;1.00
6270;DHT22;3168;51.684;6.954;2023-11-25T12:51:04;6.00;1.00
6270;DHT22;3168;51.684;6.954;2023-11-25T12:53:30;6.00;1.00
6270;DHT22;3168;51.684;6.954;2023-11-25T12:55:56;6.00;1.00
6270;DHT22;3168;51.684;6.954;2023-11-25T12:58:22;5.90;1.00
6270;DHT22;3168;51.684;6.954;2023-11-25T13:00:51;5.90;1.00
6270;DHT22;3168;51.684;6.954;2023-11-25T13:03:23;5.90;1.00
6270;DHT22;3168;51.684;6.954;2023-11-25T13:05:50;5.90;1.00
6270;DHT22;3168;51.684;6.954;2023-11-25T13:08:21;5.90;1.00
6270;DHT22;3168;51.684;6.954;2023-11-25T13:10:47;5.80;1.00
6270;DHT22;3168;51.684;6.954;2023-11-25T13:13:13;6.00;1.00
6270;DHT22;3168;51.684;6.954;2023-11-25T13:15:39;5.90;1.00
6270;DHT22;3168;51.684;6.954;2023-11-25T13:18:05;5.90;1.00
6270;DHT22;3168;51.684;6.954;2023-11-25T13:20:31;6.00;1.00
6270;DHT22;3168;51.684;6.954;2023-11-25T13:22:57;6.10;1.00
6270;DHT22;3168;51.684;6.954;2023-11-25T13:25:23;6.10;1.00
6270;DHT22;3168;51.684;6.954;2023-11-25T13:27:49;6.20;1.00
6270;DHT22;3168;51.684;6.954;2023-11-25T13:30:15;6.20;1.00
6270;DHT22;3168;51.684;6.954;2023-11-25T13:32:42;6.30;1.00
6270;DHT22;3168;51.684;6.954;2023-11-25T13:35:09;6.10;1.00
6270;DHT22;3168;51.684;6.954;2023-11-25T13:37:35;6.10;1.00
6270;DHT22;3168;51.684;6.954;2023-11-25T13:40:02;6.10;1.00
6270;DHT22;3168;51.684;6.954;2023-11-25T13:42:28;6.10;1.00
6270;DHT22;3168;51.684;6.954;2023-11-25T13:44:54;6.10;1.00
6270;DHT22;3168;51.684;6.954;2023-11-25T13:47:20;6.20;1.00
6270;DHT22;3168;51.684;6.954;2023-11-25T13:49:46;6.20;1.00
6270;DHT22;3168;51.684;6.954;2023-11-25T13:52:12;6.10;1.00
6270;DHT22;3168;51.684;6.954;2023-11-25T13:54:38;6.10;1.00
6270;DHT22;3168;51.684;6.954;2023-11-25T13:57:05;6.10;1.00
6270;DHT22;3168;51.684;6.954;2023-11-25T13:59:30;6.20;1.00
6270;DHT22;3168;51.684;6.954;2023-11-25T14:01:56;6.20;1.00
6270;DHT22;3168;51.684;6.954;2023-11-25T14:04:22;6.20;1.00
6270;DHT22;3168;51.684;6.954;2023-11-25T14:06:48;6.20;1.00
6270;DHT22;3168;51.684;6.954;2023-11-25T14:09:14;6.20;1.00
6270;DHT22;3168;51.684;6.954;2023-11-25T14:11:40;6.20;1.00
6270;DHT22;3168;51.684;6.954;2023-11-25T14:14:06;6.10;1.00
6270;DHT22;3168;51.684;6.954;2023-11-25T14:16:32;6.10;1.00
6270;DHT22;3168;51.684;6.954;2023-11-25T14:18:58;6.10;1.00
6270;DHT22;3168;51.684;6.954;2023-11-25T14:21:24;6.20;1.00
6270;DHT22;3168;51.684;6.954;2023-11-25T14:23:50;6.30;1.00
6270;DHT22;3168;51.684;6.954;2023-11-25T14:26:16;6.30;1.00
6270;DHT22;3168;51.684;6.954;2023-11-25T14:28:42;6.30;1.00
6270;DHT22;3168;51.684;6.954;2023-11-25T14:31:08;6.30;1.00
6270;DHT22;3168;51.684;6.954;2023-11-25T14:33:34;6.30;1.00
6270;DHT22;3168;51.684;6.954;2023-11-25T14:35:59;6.30;1.00
6270;DHT22;3168;51.684;6.954;2023-11-25T14:38:25;6.20;1.00
6270;DHT22;3168;51.684;6.954;2023-11-25T14:40:51;6.20;1.00
6270;DHT22;3168;51.684;6.954;2023-11-25T14:43:18;6.10;1.00
6270;DHT22;3168;51.684;6.954;2023-11-25T14:45:44;6.10;1.00
6270;DHT22;3168;51.684;6.954;2023-11-25T14:48:10;6.10;1.00
6270;DHT22;3168;51.684;6.954;2023-11-25T14:50:36;6.10;1.00
6270;DHT22;3168;51.684;6.954;2023-11-25T14:53:02;6.10;1.00
6270;DHT22;3168;51.684;6.954;2023-11-25T14:55:28;6.10;1.00
6270;DHT22;3168;51.684;6.954;2023-11-25T14:57:55;6.00;1.00
6270;DHT22;3168;51.684;6.954;2023-11-25T15:00:21;6.10;1.00
6270;DHT22;3168;51.684;6.954;2023-11-25T15:02:47;6.00;1.00
6270;DHT22;3168;51.684;6.954;2023-11-25T15:05:13;6.00;1.00
6270;DHT22;3168;51.684;6.954;2023-11-25T15:07:38;5.90;1.00
6270;DHT22;3168;51.684;6.954;2023-11-25T15:10:05;5.90;1.00
6270;DHT22;3168;51.684;6.954;2023-11-25T15:12:31;5.90;1.00
6270;DHT22;3168;51.684;6.954;2023-11-25T15:14:57;5.90;1.00
6270;DHT22;3168;51.684;6.954;2023-11-25T15:17:23;5.90;1.00
6270;DHT22;3168;51.684;6.954;2023-11-25T15:19:49;5.90;1.00
6270;DHT22;3168;51.684;6.954;2023-11-25T15:22:15;5.90;1.00
6270;DHT22;3168;51.684;6.954;2023-11-25T15:24:42;5.80;1.00
6270;DHT22;3168;51.684;6.954;2023-11-25T15:27:09;5.80;1.00
6270;DHT22;3168;51.684;6.954;2023-11-25T15:29:35;5.80;1.00
6270;DHT22;3168;51.684;6.954;2023-11-25T15:32:01;5.80;1.00
6270;DHT22;3168;51.684;6.954;2023-11-25T15:34:27;5.80;1.00
6270;DHT22;3168;51.684;6.954;2023-11-25T15:36:53;5.80;1.00
6270;DHT22;3168;51.684;6.954;2023-11-25T15:39:19;5.80;1.00
6270;DHT22;3168;51.684;6.954;2023-11-25T15:41:45;5.80;1.00
6270;DHT22;3168;51.684;6.954;2023-11-25T15:44:12;5.70;1.00
6270;DHT22;3168;51.684;6.954;2023-11-25T15:46:38;5.50;1.00
6270;DHT22;3168;51.684;6.954;2023-11-25T15:49:04;5.40;1.00
6270;DHT22;3168;51.684;6.954;2023-11-25T15:51:30;4.90;1.00
6270;DHT22;3168;51.684;6.954;2023-11-25T15:53:56;4.80;1.00
6270;DHT22;3168;51.684;6.954;2023-11-25T15:56:22;4.90;1.00
6270;DHT22;3168;51.684;6.954;2023-11-25T15:58:48;4.90;1.00
6270;DHT22;3168;51.684;6.954;2023-11-25T16:01:14;4.80;1.00
6270;DHT22;3168;51.684;6.954;2023-11-25T16:03:40;4.80;1.00
6270;DHT22;3168;51.684;6.954;2023-11-25T16:06:07;4.70;1.00
6270;DHT22;3168;51.684;6.954;2023-11-25T16:08:33;4.70;1.00
6270;DHT22;3168;51.684;6.954;2023-11-25T16:10:59;4.60;1.00
6270;DHT22;3168;51.684;6.954;2023-11-25T16:13:25;4.50;1.00
6270;DHT22;3168;51.684;6.954;2023-11-25T16:15:51;4.50;1.00
6270;DHT22;3168;51.684;6.954;2023-11-25T16:18:16;4.40;1.00
6270;DHT22;3168;51.684;6.954;2023-11-25T16:20:43;4.40;1.00
6270;DHT22;3168;51.684;6.954;2023-11-25T16:23:09;4.40;1.00
6270;DHT22;3168;51.684;6.954;2023-11-25T16:25:35;4.40;1.00
6270;DHT22;3168;51.684;6.954;2023-11-25T16:28:01;4.40;1.00
6270;DHT22;3168;51.684;6.954;2023-11-25T16:30:27;4.40;1.00
6270;DHT22;3168;51.684;6.954;2023-11-25T16:32:53;4.40;1.00